createdAt,value
2018-11-14T00:00:43.695Z,0
2018-11-14T00:01:44.360Z,0
2018-11-14T00:02:45.026Z,0
2018-11-14T00:03:45.691Z,0
2018-11-14T00:04:46.355Z,0
2018-11-14T00:05:47.018Z,0
2018-11-14T00:06:47.688Z,0
2018-11-14T00:07:48.347Z,0
2018-11-14T00:08:49.049Z,0
2018-11-14T00:09:49.715Z,0
2018-11-14T00:10:50.382Z,0
2018-11-14T00:11:51.041Z,0
2018-11-14T00:12:51.707Z,0
2018-11-14T00:13:52.372Z,0
2018-11-14T00:14:53.077Z,0
2018-11-14T00:15:53.738Z,0
2018-11-14T00:16:54.404Z,0
2018-11-14T00:17:55.109Z,0
2018-11-14T00:18:55.773Z,0
2018-11-14T00:19:56.440Z,0
2018-11-14T00:20:57.101Z,0
2018-11-14T00:21:57.767Z,0
2018-11-14T00:22:58.434Z,0
2018-11-14T00:23:59.097Z,0
2018-11-14T00:24:59.761Z,0
2018-11-14T00:26:00.426Z,0
2018-11-14T00:27:01.094Z,0
2018-11-14T00:28:02.158Z,0
2018-11-14T00:29:02.418Z,0
2018-11-14T00:30:03.087Z,0
2018-11-14T00:31:03.749Z,0
2018-11-14T00:32:04.412Z,0
2018-11-14T00:33:05.100Z,0
2018-11-14T00:34:05.772Z,0
2018-11-14T00:35:06.478Z,0
2018-11-14T00:36:07.149Z,0
2018-11-14T00:37:07.807Z,0
2018-11-14T00:38:08.515Z,0
2018-11-14T00:39:09.138Z,0
2018-11-14T00:40:09.799Z,0
2018-11-14T00:41:10.463Z,0
2018-11-14T00:42:11.138Z,0
2018-11-14T00:43:11.793Z,0
2018-11-14T00:44:12.458Z,0
2018-11-14T00:45:13.124Z,0
2018-11-14T00:46:13.794Z,0
2018-11-14T00:47:14.458Z,0
2018-11-14T00:48:15.124Z,0
2018-11-14T00:49:15.790Z,0
2018-11-14T00:50:16.452Z,0
2018-11-14T00:51:17.115Z,0
2018-11-14T00:52:17.780Z,0
2018-11-14T00:53:18.445Z,0
2018-11-14T00:54:19.108Z,0
2018-11-14T00:55:19.780Z,0
2018-11-14T00:56:20.475Z,0
2018-11-14T00:57:21.140Z,0
2018-11-14T00:58:21.805Z,0
2018-11-14T00:59:22.469Z,0
2018-11-14T01:00:23.131Z,0
2018-11-14T01:01:23.838Z,0
2018-11-14T01:02:24.458Z,0
2018-11-14T01:03:25.128Z,0
2018-11-14T01:04:25.787Z,0
2018-11-14T01:05:26.451Z,0
2018-11-14T01:06:27.115Z,0
2018-11-14T01:07:27.780Z,0
2018-11-14T01:08:28.444Z,0
2018-11-14T01:09:29.114Z,0
2018-11-14T01:10:29.769Z,0
2018-11-14T01:11:30.435Z,0
2018-11-14T01:12:31.099Z,0
2018-11-14T01:13:31.765Z,0
2018-11-14T01:14:32.429Z,0
2018-11-14T01:15:33.097Z,0
2018-11-14T01:16:33.799Z,0
2018-11-14T01:17:34.464Z,0
2018-11-14T01:18:35.128Z,0
2018-11-14T01:19:35.792Z,0
2018-11-14T01:20:36.465Z,0
2018-11-14T01:25:18.657Z,0
2018-11-14T01:26:19.324Z,0
2018-11-14T01:27:20.025Z,0
2018-11-14T01:28:20.727Z,0
2018-11-14T01:29:21.429Z,0
2018-11-14T01:30:22.096Z,0
2018-11-14T01:31:22.795Z,0
2018-11-14T01:32:23.457Z,0
2018-11-14T01:33:24.124Z,0
2018-11-14T01:34:24.784Z,0
2018-11-14T01:35:25.450Z,0
2018-11-14T01:36:26.113Z,0
2018-11-14T01:37:26.776Z,0
2018-11-14T01:38:27.477Z,0
2018-11-14T01:39:28.187Z,0
2018-11-14T01:40:28.841Z,0
2018-11-14T01:41:29.506Z,0
2018-11-14T01:42:30.170Z,0
2018-11-14T01:43:30.833Z,0
2018-11-14T01:44:31.494Z,0
2018-11-14T01:45:32.158Z,0
2018-11-14T01:46:32.819Z,0
2018-11-14T01:47:33.482Z,0
2018-11-14T01:48:34.146Z,0
2018-11-14T01:49:34.821Z,0
2018-11-14T01:50:35.473Z,0
2018-11-14T01:51:36.149Z,0
2018-11-14T01:52:36.800Z,0
2018-11-14T01:53:37.479Z,0
2018-11-14T01:54:38.166Z,0
2018-11-14T01:55:38.828Z,0
2018-11-14T01:56:39.496Z,0
2018-11-14T01:57:40.154Z,0
2018-11-14T01:58:40.815Z,0
2018-11-14T01:59:41.480Z,0
2018-11-14T02:00:42.145Z,0
2018-11-14T02:01:42.807Z,0
2018-11-14T02:02:43.472Z,0
2018-11-14T02:03:44.184Z,0
2018-11-14T02:04:44.847Z,0
2018-11-14T02:05:45.509Z,0
2018-11-14T02:06:46.190Z,0
2018-11-14T02:07:46.834Z,0
2018-11-14T02:08:47.498Z,0
2018-11-14T02:09:48.164Z,0
2018-11-14T02:10:48.827Z,0
2018-11-14T02:11:49.488Z,0
2018-11-14T02:12:50.151Z,0
2018-11-14T02:13:50.816Z,0
2018-11-14T02:14:51.478Z,0
2018-11-14T02:15:52.143Z,0
2018-11-14T02:16:52.803Z,0
2018-11-14T02:17:53.466Z,0
2018-11-14T02:18:54.132Z,0
2018-11-14T02:19:54.796Z,0
2018-11-14T02:20:55.459Z,0
2018-11-14T02:21:56.123Z,0
2018-11-14T02:22:56.785Z,0
2018-11-14T02:23:57.450Z,0
2018-11-14T02:24:58.112Z,0
2018-11-14T02:25:58.775Z,0
2018-11-14T02:26:59.437Z,0
2018-11-14T02:28:00.100Z,0
2018-11-14T02:29:00.764Z,0
2018-11-14T02:30:01.428Z,0
2018-11-14T02:31:02.093Z,0
2018-11-14T02:32:02.753Z,0
2018-11-14T02:33:03.416Z,0
2018-11-14T02:34:04.080Z,0
2018-11-14T02:35:04.771Z,0
2018-11-14T02:36:05.408Z,0
2018-11-14T02:37:06.066Z,0
2018-11-14T02:38:06.729Z,0
2018-11-14T02:39:07.403Z,0
2018-11-14T02:40:08.058Z,0
2018-11-14T02:41:08.718Z,0
2018-11-14T02:42:09.382Z,0
2018-11-14T02:43:10.044Z,0
2018-11-14T02:44:10.715Z,0
2018-11-14T02:45:11.370Z,0
2018-11-14T02:46:12.032Z,0
2018-11-14T02:47:12.699Z,0
2018-11-14T02:48:13.356Z,0
2018-11-14T02:49:14.019Z,0
2018-11-14T02:50:14.721Z,0
2018-11-14T02:51:15.382Z,0
2018-11-14T02:52:16.047Z,0
2018-11-14T02:53:16.711Z,0
2018-11-14T02:54:17.374Z,0
2018-11-14T02:55:18.078Z,0
2018-11-14T02:56:18.738Z,0
2018-11-14T02:57:19.400Z,0
2018-11-14T02:58:20.064Z,0
2018-11-14T02:59:20.724Z,0
2018-11-14T03:00:21.388Z,0
2018-11-14T03:01:22.050Z,0
2018-11-14T03:02:22.713Z,0
2018-11-14T03:03:23.377Z,0
2018-11-14T03:04:24.043Z,0
2018-11-14T03:05:24.705Z,0
2018-11-14T03:06:25.403Z,0
2018-11-14T03:07:26.069Z,0
2018-11-14T03:08:26.739Z,0
2018-11-14T03:09:27.433Z,0
2018-11-14T03:10:28.098Z,0
2018-11-14T03:11:28.798Z,0
2018-11-14T03:12:29.594Z,0
2018-11-14T03:13:30.124Z,0
2018-11-14T03:14:30.786Z,0
2018-11-14T03:15:31.448Z,0
2018-11-14T03:16:32.143Z,0
2018-11-14T03:17:32.814Z,0
2018-11-14T03:18:33.482Z,0
2018-11-14T03:19:34.148Z,0
2018-11-14T03:20:34.853Z,0
2018-11-14T03:21:35.520Z,0
2018-11-14T03:22:36.185Z,0
2018-11-14T03:23:36.849Z,0
2018-11-14T03:24:37.520Z,0
2018-11-14T03:25:38.223Z,0
2018-11-14T03:26:38.888Z,0
2018-11-14T03:27:39.554Z,0
2018-11-14T03:28:40.260Z,0
2018-11-14T03:29:40.925Z,0
2018-11-14T03:30:41.590Z,0
2018-11-14T03:31:42.260Z,0
2018-11-14T03:32:42.927Z,0
2018-11-14T03:33:43.584Z,0
2018-11-14T03:34:44.249Z,0
2018-11-14T03:35:44.914Z,0
2018-11-14T03:36:45.579Z,0
2018-11-14T03:37:46.245Z,0
2018-11-14T03:38:46.911Z,0
2018-11-14T03:39:47.576Z,0
2018-11-14T03:40:48.239Z,0
2018-11-14T03:41:48.904Z,0
2018-11-14T03:42:49.568Z,0
2018-11-14T03:43:50.233Z,0
2018-11-14T03:44:50.898Z,0
2018-11-14T03:45:51.563Z,0
2018-11-14T03:46:52.229Z,0
2018-11-14T03:47:52.896Z,0
2018-11-14T03:48:53.561Z,0
2018-11-14T03:49:54.234Z,0
2018-11-14T03:50:54.902Z,0
2018-11-14T03:51:55.565Z,0
2018-11-14T03:52:56.229Z,0
2018-11-14T03:53:56.895Z,0
2018-11-14T03:54:57.559Z,0
2018-11-14T03:55:58.223Z,0
2018-11-14T03:56:58.898Z,0
2018-11-14T03:57:59.554Z,0
2018-11-14T03:59:00.219Z,0
2018-11-14T04:00:00.884Z,0
2018-11-14T04:01:01.549Z,0
2018-11-14T04:02:02.215Z,0
2018-11-14T04:03:02.877Z,0
2018-11-14T04:04:03.543Z,0
2018-11-14T04:05:04.251Z,0
2018-11-14T04:06:04.925Z,0
2018-11-14T04:07:05.581Z,0
2018-11-14T04:08:06.251Z,0
2018-11-14T04:09:06.980Z,0
2018-11-14T04:10:07.625Z,0
2018-11-14T04:11:08.285Z,0
2018-11-14T04:12:08.949Z,0
2018-11-14T04:13:09.616Z,0
2018-11-14T04:14:10.279Z,0
2018-11-14T04:15:10.947Z,0
2018-11-14T04:16:11.609Z,0
2018-11-14T04:17:12.275Z,0
2018-11-14T04:18:12.942Z,0
2018-11-14T04:19:13.607Z,0
2018-11-14T04:20:14.312Z,0
2018-11-14T04:21:14.978Z,0
2018-11-14T04:22:15.643Z,0
2018-11-14T04:23:16.311Z,0
2018-11-14T04:24:16.973Z,0
2018-11-14T04:25:17.635Z,0
2018-11-14T04:26:18.339Z,0
2018-11-14T04:27:19.039Z,0
2018-11-14T04:28:19.701Z,0
2018-11-14T04:29:20.363Z,0
2018-11-14T04:30:21.029Z,0
2018-11-14T04:31:21.726Z,0
2018-11-14T04:32:22.389Z,0
2018-11-14T04:33:23.051Z,0
2018-11-14T04:34:23.721Z,0
2018-11-14T04:35:24.375Z,0
2018-11-14T04:36:25.050Z,0
2018-11-14T04:37:25.744Z,0
2018-11-14T04:38:26.447Z,0
2018-11-14T04:39:27.110Z,0
2018-11-14T04:40:27.774Z,0
2018-11-14T04:41:28.436Z,0
2018-11-14T04:42:29.099Z,0
2018-11-14T04:43:29.762Z,0
2018-11-14T04:44:30.423Z,0
2018-11-14T04:45:31.089Z,0
2018-11-14T04:46:31.747Z,0
2018-11-14T04:47:32.412Z,0
2018-11-14T04:48:33.076Z,0
2018-11-14T04:49:33.739Z,0
2018-11-14T04:50:34.402Z,0
2018-11-14T04:51:35.073Z,0
2018-11-14T04:52:35.727Z,0
2018-11-14T04:53:36.390Z,0
2018-11-14T04:54:37.053Z,0
2018-11-14T04:55:37.715Z,0
2018-11-14T04:56:38.380Z,0
2018-11-14T04:57:39.079Z,0
2018-11-14T04:58:39.740Z,0
2018-11-14T04:59:40.405Z,0
2018-11-14T05:00:41.070Z,0
2018-11-14T05:01:41.731Z,0
2018-11-14T05:02:42.446Z,0
2018-11-14T05:03:43.061Z,0
2018-11-14T05:04:43.720Z,0
2018-11-14T05:05:44.380Z,0
2018-11-14T05:06:45.042Z,0
2018-11-14T05:07:45.706Z,0
2018-11-14T05:08:46.367Z,0
2018-11-14T05:09:47.031Z,0
2018-11-14T05:10:47.696Z,0
2018-11-14T05:11:48.358Z,0
2018-11-14T05:12:49.036Z,0
2018-11-14T05:13:49.682Z,0
2018-11-14T05:14:50.345Z,0
2018-11-14T05:15:51.008Z,0
2018-11-14T05:16:51.670Z,0
2018-11-14T05:17:52.342Z,0
2018-11-14T05:18:53.035Z,0
2018-11-14T05:19:53.735Z,0
2018-11-14T05:20:54.396Z,0
2018-11-14T05:21:55.060Z,0
2018-11-14T05:22:55.726Z,0
2018-11-14T05:23:56.388Z,0
2018-11-14T05:24:57.088Z,0
2018-11-14T05:25:57.752Z,0
2018-11-14T05:26:58.417Z,0
2018-11-14T05:27:59.115Z,0
2018-11-14T05:28:59.778Z,0
2018-11-14T05:30:00.441Z,0
2018-11-14T05:31:01.104Z,0
2018-11-14T05:32:01.802Z,0
2018-11-14T05:33:02.459Z,0
2018-11-14T05:34:03.122Z,0
2018-11-14T05:35:03.784Z,0
2018-11-14T05:36:04.451Z,0
2018-11-14T05:37:05.150Z,0
2018-11-14T05:38:05.813Z,0
2018-11-14T05:39:06.475Z,0
2018-11-14T05:40:07.226Z,0
2018-11-14T05:41:07.802Z,0
2018-11-14T05:42:08.465Z,0
2018-11-14T05:43:09.140Z,0
2018-11-14T05:44:09.827Z,0
2018-11-14T05:45:10.500Z,0
2018-11-14T05:46:11.188Z,0
2018-11-14T05:47:11.855Z,0
2018-11-14T05:48:12.515Z,0
2018-11-14T05:49:13.177Z,0
2018-11-14T05:50:13.842Z,0
2018-11-14T05:51:14.504Z,0
2018-11-14T05:52:15.166Z,0
2018-11-14T05:53:15.830Z,0
2018-11-14T05:54:16.493Z,0
2018-11-14T05:55:17.194Z,0
2018-11-14T05:56:17.855Z,0
2018-11-14T05:57:18.519Z,0
2018-11-14T05:58:19.217Z,0
2018-11-14T05:59:19.879Z,0
2018-11-14T06:00:20.544Z,0
2018-11-14T06:01:21.266Z,0
2018-11-14T06:02:21.946Z,0
2018-11-14T06:03:22.625Z,0
2018-11-14T06:04:23.313Z,0
2018-11-14T06:05:23.977Z,0
2018-11-14T06:06:24.641Z,0
2018-11-14T06:07:25.355Z,0
2018-11-14T06:08:25.967Z,0
2018-11-14T06:09:26.628Z,0
2018-11-14T06:10:27.292Z,0
2018-11-14T06:11:27.975Z,0
2018-11-14T06:12:28.659Z,0
2018-11-14T06:13:29.324Z,0
2018-11-14T06:14:29.988Z,0
2018-11-14T06:15:30.651Z,0
2018-11-14T06:16:31.317Z,0
2018-11-14T06:17:32.017Z,0
2018-11-14T06:18:32.680Z,0
2018-11-14T06:19:33.343Z,0
2018-11-14T06:20:34.006Z,0
2018-11-14T06:21:34.676Z,0
2018-11-14T06:22:35.332Z,0
2018-11-14T06:23:36.056Z,0
2018-11-14T06:24:36.739Z,0
2018-11-14T06:25:37.411Z,0
2018-11-14T06:26:38.093Z,0
2018-11-14T06:27:38.760Z,0
2018-11-14T06:28:39.424Z,0
2018-11-14T06:29:40.146Z,0
2018-11-14T06:30:40.757Z,0
2018-11-14T06:31:41.424Z,5
2018-11-14T06:32:42.120Z,5
2018-11-14T06:33:42.788Z,5
2018-11-14T06:34:43.452Z,5
2018-11-14T06:35:44.116Z,5
2018-11-14T06:36:44.781Z,5
2018-11-14T06:37:45.485Z,5
2018-11-14T06:38:46.158Z,5
2018-11-14T06:39:46.813Z,5
2018-11-14T06:40:47.478Z,5
2018-11-14T06:41:48.209Z,5
2018-11-14T06:42:48.807Z,5
2018-11-14T06:43:49.473Z,5
2018-11-14T06:44:50.147Z,11
2018-11-14T06:45:50.804Z,11
2018-11-14T06:46:51.472Z,11
2018-11-14T06:47:52.142Z,11
2018-11-14T06:48:52.842Z,11
2018-11-14T06:49:53.561Z,11
2018-11-14T06:50:54.173Z,11
2018-11-14T06:51:54.839Z,11
2018-11-14T06:52:55.506Z,11
2018-11-14T06:53:56.215Z,11
2018-11-14T06:54:56.881Z,11
2018-11-14T06:55:57.618Z,11
2018-11-14T06:56:58.284Z,11
2018-11-14T06:57:58.950Z,16
2018-11-14T06:58:59.734Z,16
2018-11-14T07:00:00.286Z,16
2018-11-14T07:01:00.951Z,16
2018-11-14T07:02:01.616Z,16
2018-11-14T07:03:02.284Z,16
2018-11-14T07:04:02.951Z,16
2018-11-14T07:05:03.655Z,16
2018-11-14T07:06:04.479Z,16
2018-11-14T07:07:04.951Z,16
2018-11-14T07:08:05.628Z,16
2018-11-14T07:09:06.300Z,16
2018-11-14T07:10:06.974Z,16
2018-11-14T07:11:07.724Z,22
2018-11-14T07:12:08.382Z,22
2018-11-14T07:13:09.047Z,22
2018-11-14T07:14:09.716Z,22
2018-11-14T07:15:10.383Z,22
2018-11-14T07:16:11.049Z,22
2018-11-14T07:17:11.717Z,22
2018-11-14T07:18:12.385Z,22
2018-11-14T07:19:13.052Z,22
2018-11-14T07:20:13.719Z,22
2018-11-14T07:21:14.386Z,22
2018-11-14T07:22:15.056Z,22
2018-11-14T07:23:15.732Z,28
2018-11-14T07:24:16.441Z,28
2018-11-14T07:25:17.108Z,28
2018-11-14T07:26:17.774Z,28
2018-11-14T07:27:18.443Z,28
2018-11-14T07:28:19.149Z,28
2018-11-14T07:29:19.817Z,28
2018-11-14T07:30:20.492Z,28
2018-11-14T07:31:21.161Z,28
2018-11-14T07:32:21.827Z,28
2018-11-14T07:33:22.494Z,28
2018-11-14T07:34:23.161Z,28
2018-11-14T07:35:23.828Z,28
2018-11-14T07:36:24.538Z,28
2018-11-14T07:37:25.206Z,33
2018-11-14T07:38:25.909Z,33
2018-11-14T07:39:26.613Z,33
2018-11-14T07:40:27.282Z,33
2018-11-14T07:41:27.949Z,33
2018-11-14T07:42:28.618Z,33
2018-11-14T07:43:29.316Z,33
2018-11-14T07:44:29.952Z,33
2018-11-14T07:45:30.619Z,33
2018-11-14T07:46:31.288Z,33
2018-11-14T07:47:31.955Z,33
2018-11-14T07:48:32.620Z,33
2018-11-14T07:49:33.290Z,33
2018-11-14T07:50:33.966Z,33
2018-11-14T07:51:34.625Z,33
2018-11-14T07:52:35.294Z,33
2018-11-14T07:53:35.960Z,33
2018-11-14T07:54:36.640Z,33
2018-11-14T07:55:37.325Z,39
2018-11-14T07:56:37.992Z,39
2018-11-14T07:57:38.665Z,39
2018-11-14T07:58:39.325Z,39
2018-11-14T07:59:39.994Z,39
2018-11-14T08:00:40.705Z,39
2018-11-14T08:01:41.374Z,39
2018-11-14T08:02:42.057Z,39
2018-11-14T08:03:42.790Z,39
2018-11-14T08:04:43.469Z,39
2018-11-14T08:05:44.147Z,39
2018-11-14T08:06:44.852Z,39
2018-11-14T08:07:45.603Z,39
2018-11-14T08:08:46.234Z,39
2018-11-14T08:09:46.928Z,39
2018-11-14T08:10:47.613Z,39
2018-11-14T08:11:48.283Z,39
2018-11-14T08:12:48.966Z,39
2018-11-14T08:13:49.693Z,39
2018-11-14T08:14:50.403Z,39
2018-11-14T08:15:51.071Z,39
2018-11-14T08:16:51.778Z,45
2018-11-14T08:17:52.445Z,45
2018-11-14T08:18:53.178Z,45
2018-11-14T08:19:53.780Z,45
2018-11-14T08:20:54.448Z,45
2018-11-14T08:21:55.154Z,45
2018-11-14T08:22:55.822Z,45
2018-11-14T08:23:56.491Z,45
2018-11-14T08:24:57.184Z,45
2018-11-14T08:25:57.825Z,45
2018-11-14T08:26:58.493Z,45
2018-11-14T08:27:59.160Z,45
2018-11-14T08:28:59.836Z,45
2018-11-14T08:30:00.494Z,45
2018-11-14T08:31:01.165Z,45
2018-11-14T08:32:01.834Z,45
2018-11-14T08:33:02.552Z,45
2018-11-14T08:34:03.217Z,45
2018-11-14T08:35:03.886Z,45
2018-11-14T08:36:04.562Z,45
2018-11-14T08:37:05.264Z,50
2018-11-14T08:38:05.934Z,50
2018-11-14T08:39:06.687Z,50
2018-11-14T08:40:07.335Z,50
2018-11-14T08:41:08.008Z,50
2018-11-14T08:42:08.711Z,50
2018-11-14T08:43:09.380Z,50
2018-11-14T08:44:10.087Z,50
2018-11-14T08:45:10.757Z,50
2018-11-14T08:46:11.426Z,50
2018-11-14T08:47:12.144Z,50
2018-11-14T08:48:12.888Z,50
2018-11-14T08:49:13.556Z,50
2018-11-14T08:50:14.281Z,50
2018-11-14T08:51:14.889Z,50
2018-11-14T08:52:15.556Z,50
2018-11-14T08:53:16.226Z,50
2018-11-14T08:54:16.894Z,56
2018-11-14T08:55:17.567Z,56
2018-11-14T08:56:18.229Z,56
2018-11-14T08:57:18.936Z,56
2018-11-14T08:58:19.612Z,56
2018-11-14T08:59:20.272Z,56
2018-11-14T09:00:20.942Z,56
2018-11-14T09:01:21.618Z,56
2018-11-14T09:02:22.318Z,56
2018-11-14T09:03:22.988Z,56
2018-11-14T09:04:23.655Z,56
2018-11-14T09:05:24.326Z,61
2018-11-14T09:06:25.088Z,61
2018-11-14T09:07:25.658Z,61
2018-11-14T09:08:26.329Z,61
2018-11-14T09:09:26.996Z,61
2018-11-14T09:10:27.665Z,61
2018-11-14T09:11:28.498Z,67
2018-11-14T09:12:29.069Z,67
2018-11-14T09:13:29.678Z,67
2018-11-14T09:14:30.373Z,67
2018-11-14T09:15:31.016Z,67
2018-11-14T09:16:31.700Z,67
2018-11-14T09:17:32.401Z,67
2018-11-14T09:18:33.125Z,67
2018-11-14T09:19:33.729Z,67
2018-11-14T09:20:34.397Z,67
2018-11-14T09:21:35.065Z,67
2018-11-14T09:22:35.734Z,73
2018-11-14T09:23:36.404Z,73
2018-11-14T09:24:37.110Z,73
2018-11-14T09:25:37.741Z,73
2018-11-14T09:26:38.454Z,73
2018-11-14T09:27:39.115Z,67
2018-11-14T09:28:39.821Z,67
2018-11-14T09:29:40.519Z,67
2018-11-14T09:30:41.158Z,67
2018-11-14T09:31:41.858Z,67
2018-11-14T09:32:42.534Z,67
2018-11-14T09:33:43.203Z,67
2018-11-14T09:34:43.898Z,67
2018-11-14T09:35:44.550Z,67
2018-11-14T09:36:45.210Z,67
2018-11-14T09:37:45.879Z,67
2018-11-14T09:38:46.613Z,67
2018-11-14T09:39:47.304Z,67
2018-11-14T09:40:48.005Z,67
2018-11-14T09:41:48.638Z,67
2018-11-14T09:42:49.346Z,67
2018-11-14T09:43:50.040Z,67
2018-11-14T09:44:50.685Z,67
2018-11-14T09:45:51.392Z,73
2018-11-14T09:46:52.102Z,67
2018-11-14T09:47:52.772Z,73
2018-11-14T09:48:53.442Z,67
2018-11-14T09:49:54.111Z,73
2018-11-14T09:50:54.787Z,73
2018-11-14T09:51:55.449Z,73
2018-11-14T09:52:56.162Z,73
2018-11-14T09:53:56.788Z,73
2018-11-14T09:54:57.495Z,73
2018-11-14T09:55:58.164Z,73
2018-11-14T09:56:58.920Z,73
2018-11-14T09:57:59.541Z,73
2018-11-14T09:59:00.245Z,73
2018-11-14T10:00:00.916Z,73
2018-11-14T10:01:01.583Z,73
2018-11-14T10:02:02.251Z,73
2018-11-14T10:03:02.943Z,73
2018-11-14T10:04:03.594Z,73
2018-11-14T10:05:04.270Z,73
2018-11-14T10:06:04.962Z,73
2018-11-14T10:07:05.598Z,73
2018-11-14T10:08:06.346Z,73
2018-11-14T10:09:06.943Z,73
2018-11-14T10:10:07.647Z,73
2018-11-14T10:11:08.354Z,73
2018-11-14T10:12:09.027Z,73
2018-11-14T10:13:09.695Z,73
2018-11-14T10:14:10.405Z,73
2018-11-14T10:15:11.073Z,73
2018-11-14T10:16:11.753Z,73
2018-11-14T10:17:12.413Z,73
2018-11-14T10:18:13.081Z,73
2018-11-14T10:19:13.752Z,78
2018-11-14T10:20:14.419Z,78
2018-11-14T10:21:15.160Z,78
2018-11-14T10:22:15.758Z,78
2018-11-14T10:23:16.427Z,78
2018-11-14T10:24:17.098Z,78
2018-11-14T10:25:17.767Z,78
2018-11-14T10:26:18.438Z,78
2018-11-14T10:27:19.184Z,78
2018-11-14T10:28:19.855Z,78
2018-11-14T10:29:20.536Z,78
2018-11-14T10:30:21.272Z,78
2018-11-14T10:31:21.923Z,78
2018-11-14T10:32:22.566Z,78
2018-11-14T10:33:23.236Z,78
2018-11-14T10:34:23.905Z,78
2018-11-14T10:35:24.574Z,84
2018-11-14T10:36:25.253Z,84
2018-11-14T10:37:25.917Z,84
2018-11-14T10:38:26.586Z,78
2018-11-14T10:39:27.256Z,78
2018-11-14T10:40:27.928Z,78
2018-11-14T10:41:28.597Z,78
2018-11-14T10:42:29.268Z,78
2018-11-14T10:43:29.944Z,84
2018-11-14T10:44:30.646Z,84
2018-11-14T10:45:31.316Z,84
2018-11-14T10:46:31.995Z,84
2018-11-14T10:47:32.656Z,84
2018-11-14T10:48:33.327Z,90
2018-11-14T10:49:34.020Z,90
2018-11-14T10:50:34.707Z,95
2018-11-14T10:51:35.377Z,95
2018-11-14T10:52:36.049Z,101
2018-11-14T10:53:36.758Z,101
2018-11-14T10:54:37.429Z,101
2018-11-14T10:55:38.101Z,106
2018-11-14T10:56:38.774Z,106
2018-11-14T10:57:39.449Z,106
2018-11-14T10:58:40.119Z,101
2018-11-14T10:59:40.788Z,95
2018-11-14T11:00:41.508Z,95
2018-11-14T11:01:42.182Z,90
2018-11-14T11:02:42.848Z,78
2018-11-14T11:03:43.519Z,78
2018-11-14T11:04:44.190Z,73
2018-11-14T11:05:44.910Z,78
2018-11-14T11:06:45.614Z,90
2018-11-14T11:07:46.348Z,101
2018-11-14T11:08:47.016Z,106
2018-11-14T11:09:47.634Z,112
2018-11-14T11:10:48.308Z,106
2018-11-14T11:11:48.979Z,106
2018-11-14T11:12:49.649Z,101
2018-11-14T11:13:50.378Z,101
2018-11-14T11:14:51.031Z,95
2018-11-14T11:15:51.702Z,95
2018-11-14T11:16:52.372Z,95
2018-11-14T11:17:53.042Z,95
2018-11-14T11:18:53.721Z,95
2018-11-14T11:19:54.385Z,84
2018-11-14T11:20:55.055Z,78
2018-11-14T11:21:55.727Z,78
2018-11-14T11:22:56.395Z,95
2018-11-14T11:23:57.066Z,101
2018-11-14T11:24:57.739Z,106
2018-11-14T11:25:58.614Z,106
2018-11-14T11:26:59.305Z,106
2018-11-14T11:27:59.998Z,106
2018-11-14T11:29:00.667Z,106
2018-11-14T11:30:01.339Z,101
2018-11-14T11:31:02.022Z,101
2018-11-14T11:32:02.788Z,95
2018-11-14T11:33:03.392Z,101
2018-11-14T11:34:04.064Z,95
2018-11-14T11:35:04.781Z,90
2018-11-14T11:36:05.469Z,90
2018-11-14T11:37:06.115Z,90
2018-11-14T11:38:06.791Z,84
2018-11-14T11:39:07.458Z,84
2018-11-14T11:40:08.126Z,84
2018-11-14T11:41:08.798Z,78
2018-11-14T11:42:09.470Z,78
2018-11-14T11:43:10.140Z,84
2018-11-14T11:44:10.835Z,84
2018-11-14T11:45:11.481Z,84
2018-11-14T11:46:12.170Z,84
2018-11-14T11:47:12.865Z,84
2018-11-14T11:48:13.573Z,90
2018-11-14T11:49:14.245Z,90
2018-11-14T11:50:14.917Z,90
2018-11-14T11:51:15.624Z,90
2018-11-14T11:52:16.302Z,90
2018-11-14T11:53:17.010Z,95
2018-11-14T11:54:17.680Z,106
2018-11-14T11:55:18.354Z,95
2018-11-14T11:56:19.022Z,95
2018-11-14T11:57:19.704Z,95
2018-11-14T11:58:20.405Z,95
2018-11-14T11:59:21.139Z,95
2018-11-14T12:00:21.984Z,95
2018-11-14T12:01:22.490Z,101
2018-11-14T12:02:23.240Z,101
2018-11-14T12:03:23.883Z,95
2018-11-14T12:04:24.573Z,95
2018-11-14T12:05:25.283Z,95
2018-11-14T12:06:26.001Z,95
2018-11-14T12:07:26.664Z,101
2018-11-14T12:08:27.362Z,95
2018-11-14T12:09:28.035Z,90
2018-11-14T12:10:28.776Z,90
2018-11-14T12:11:29.378Z,90
2018-11-14T12:12:30.048Z,90
2018-11-14T12:13:30.732Z,95
2018-11-14T12:14:31.393Z,101
2018-11-14T12:15:32.065Z,101
2018-11-14T12:16:32.736Z,95
2018-11-14T12:17:33.425Z,95
2018-11-14T12:18:34.085Z,112
2018-11-14T12:19:34.783Z,202
2018-11-14T12:20:35.466Z,185
2018-11-14T12:21:36.138Z,112
2018-11-14T12:22:36.848Z,95
2018-11-14T12:23:37.552Z,90
2018-11-14T12:24:38.196Z,90
2018-11-14T12:25:38.898Z,90
2018-11-14T12:26:39.573Z,90
2018-11-14T12:27:40.334Z,90
2018-11-14T12:28:40.916Z,90
2018-11-14T12:29:41.605Z,90
2018-11-14T12:30:42.445Z,90
2018-11-14T12:31:42.931Z,90
2018-11-14T12:32:43.639Z,84
2018-11-14T12:33:44.334Z,90
2018-11-14T12:34:45.039Z,95
2018-11-14T12:35:45.734Z,112
2018-11-14T12:36:46.331Z,118
2018-11-14T12:37:47.000Z,106
2018-11-14T12:38:47.686Z,90
2018-11-14T12:39:48.479Z,90
2018-11-14T12:40:49.021Z,84
2018-11-14T12:41:49.731Z,84
2018-11-14T12:42:50.357Z,84
2018-11-14T12:43:51.031Z,84
2018-11-14T12:44:51.716Z,84
2018-11-14T12:45:52.374Z,84
2018-11-14T12:46:53.046Z,84
2018-11-14T12:47:53.755Z,84
2018-11-14T12:48:54.430Z,90
2018-11-14T12:49:55.102Z,95
2018-11-14T12:50:55.774Z,106
2018-11-14T12:51:56.446Z,129
2018-11-14T12:52:57.121Z,140
2018-11-14T12:53:57.794Z,123
2018-11-14T12:54:58.465Z,95
2018-11-14T12:55:59.140Z,90
2018-11-14T12:56:59.806Z,95
2018-11-14T12:58:00.479Z,95
2018-11-14T12:59:01.151Z,101
2018-11-14T13:00:01.937Z,101
2018-11-14T13:01:02.529Z,101
2018-11-14T13:02:03.203Z,101
2018-11-14T13:03:03.876Z,101
2018-11-14T13:04:04.553Z,101
2018-11-14T13:05:05.225Z,95
2018-11-14T13:06:05.931Z,101
2018-11-14T13:07:06.633Z,112
2018-11-14T13:08:07.325Z,101
2018-11-14T13:09:07.988Z,95
2018-11-14T13:10:08.669Z,90
2018-11-14T13:11:09.369Z,90
2018-11-14T13:12:10.052Z,90
2018-11-14T13:13:10.714Z,90
2018-11-14T13:14:11.386Z,84
2018-11-14T13:15:12.065Z,84
2018-11-14T13:16:12.766Z,84
2018-11-14T13:17:13.438Z,84
2018-11-14T13:18:14.108Z,84
2018-11-14T13:19:14.780Z,84
2018-11-14T13:20:15.453Z,84
2018-11-14T13:21:16.126Z,84
2018-11-14T13:22:16.838Z,84
2018-11-14T13:23:17.547Z,84
2018-11-14T13:24:18.217Z,84
2018-11-14T13:25:18.888Z,90
2018-11-14T13:26:19.568Z,95
2018-11-14T13:27:20.270Z,101
2018-11-14T13:28:20.942Z,95
2018-11-14T13:29:21.614Z,90
2018-11-14T13:30:22.285Z,90
2018-11-14T13:31:22.958Z,84
2018-11-14T13:32:23.629Z,90
2018-11-14T13:33:24.304Z,84
2018-11-14T13:34:24.972Z,84
2018-11-14T13:35:25.643Z,78
2018-11-14T13:36:26.316Z,67
2018-11-14T13:37:27.027Z,78
2018-11-14T13:38:27.699Z,84
2018-11-14T13:39:28.370Z,73
2018-11-14T13:40:29.040Z,73
2018-11-14T13:41:29.711Z,84
2018-11-14T13:42:30.397Z,90
2018-11-14T13:43:31.092Z,90
2018-11-14T13:44:31.771Z,90
2018-11-14T13:45:32.436Z,90
2018-11-14T13:46:33.108Z,90
2018-11-14T13:47:33.778Z,95
2018-11-14T13:48:34.450Z,95
2018-11-14T13:49:35.239Z,95
2018-11-14T13:50:36.034Z,95
2018-11-14T13:51:36.505Z,95
2018-11-14T13:52:37.176Z,95
2018-11-14T13:53:37.848Z,95
2018-11-14T13:54:38.553Z,95
2018-11-14T13:55:39.229Z,95
2018-11-14T13:56:39.899Z,90
2018-11-14T13:57:40.571Z,90
2018-11-14T13:58:41.281Z,90
2018-11-14T13:59:41.914Z,84
2018-11-14T14:00:42.587Z,84
2018-11-14T14:01:43.258Z,84
2018-11-14T14:02:43.929Z,84
2018-11-14T14:03:44.601Z,78
2018-11-14T14:04:45.274Z,78
2018-11-14T14:05:45.943Z,78
2018-11-14T14:06:46.652Z,73
2018-11-14T14:07:47.321Z,73
2018-11-14T14:08:47.998Z,73
2018-11-14T14:09:48.725Z,73
2018-11-14T14:10:49.388Z,73
2018-11-14T14:11:50.063Z,78
2018-11-14T14:12:50.733Z,78
2018-11-14T14:13:51.405Z,78
2018-11-14T14:14:52.077Z,78
2018-11-14T14:15:52.746Z,78
2018-11-14T14:16:53.417Z,78
2018-11-14T14:17:54.089Z,78
2018-11-14T14:18:54.763Z,78
2018-11-14T14:19:55.434Z,78
2018-11-14T14:20:56.106Z,67
2018-11-14T14:21:56.822Z,61
2018-11-14T14:22:57.479Z,61
2018-11-14T14:23:58.162Z,61
2018-11-14T14:24:58.823Z,56
2018-11-14T14:25:59.496Z,56
2018-11-14T14:27:00.166Z,50
2018-11-14T14:28:00.836Z,50
2018-11-14T14:29:01.509Z,50
2018-11-14T14:30:02.194Z,50
2018-11-14T14:31:02.976Z,50
2018-11-14T14:32:03.592Z,45
2018-11-14T14:33:04.264Z,45
2018-11-14T14:34:04.934Z,45
2018-11-14T14:35:05.604Z,45
2018-11-14T14:36:06.322Z,45
2018-11-14T14:37:07.037Z,45
2018-11-14T14:38:07.796Z,39
2018-11-14T14:39:08.409Z,39
2018-11-14T14:40:09.080Z,39
2018-11-14T14:41:09.753Z,39